Thunderstorms From: 19-11-2019 16:00 Until: 20-11-2019 20:00 warning for: Thunderstorms Level: Yellow info button

Warning for Thunderstorms more information blitzortung!


My Other Sites:

SYKIA HOMEWEATHERSTATIONsikeaweather.alinos.eu

SYKIA METEOTEMPLATEsykiameteo.alinos.eu

alinos.eualinos.eu



Nearby METAR Reports

   
LGEL - Elefsis (hel-Afb, Greece
Distance from station: E 77 km
Updated: 19-11-2019 23:20
Partly Cloudy  
Partly Cloudy  
   Wind: Calm
Wind: Calm
Temperature: 16°C
Dew Point: 15°C
Humidity: 94%
Barometer: 1019 hPa
Clouds: Partly Cloudy
Visibility: More than 10 km
Cloud details: Few Clouds 2000 ft,
Partly Cloudy 7000 ft
LGEL 192120Z 00000KT 9999 FEW020TCU SCT070 16/15 Q1019
LGRX - Araxos (civ/Afb), Greece
Distance from station: W 110 km
Updated: 19-11-2019 22:50
Partly Cloudy  
Partly Cloudy  
   Wind: Calm
Wind: Calm
Temperature: 15°C
Dew Point: 14°C
Humidity: 94%
Barometer: 1016 hPa
Clouds: Partly Cloudy
Visibility: More than 10 km
Cloud details: Few Clouds 1800 ft,
Partly Cloudy 2000 ft
LGRX 192050Z 00000KT 9999 FEW018TCU SCT020 15/14 Q1016
LGAV - Athens/Elef-Ven, Greece
Distance from station: E 113 km
Updated: 19-11-2019 23:20
Partly Cloudy  
Partly Cloudy  
   Wind: WNW 7.4 km/h
Wind: WNW 7.4 km/h
Temperature: 13°C
Dew Point: 12°C
Humidity: 94%
Barometer: 1021 hPa
Clouds: Partly Cloudy
Visibility: More than 10 km
Cloud details: Few Clouds 1500 ft,
Partly Cloudy 2000 ft
LGAV 192120Z 29004KT 9999 FEW015 SCT020 13/12 Q1021 NOSIG
LGAD - Andravida (civ/A, Greece
Distance from station: W 124 km
Updated: 19-11-2019 23:20
Mostly Cloudy  
Mostly Cloudy  
   Wind: SE 14.8 km/h
Wind: SE 14.8 km/h
Temperature: 19°C
Dew Point: 12°C
Humidity: 64%
Barometer: 1016 hPa
Clouds: Mostly Cloudy
Visibility: More than 10 km
Cloud details: Few Clouds 1800 ft,
Mostly Cloudy 8000 ft
LGAD 192120Z 13008KT 9999 FEW018CB BKN080 19/12 Q1016
LGKL - Kalamata (hel-Af, Greece
Distance from station: SSW 124 km
Updated: 19-11-2019 23:20
  
  
   Wind: varies 5.6 km/h
Wind: varies 5.6 km/h
Temperature: 14°C
Dew Point: 13°C
Humidity: 94%
Barometer: 1017 hPa
LGKL 192120Z AUTO VRB03KT //// // ////// 14/13 Q1017 RE//
LGBL - Nea Anchialos, Greece
Distance from station: N 129 km
Updated: 19-11-2019 22:50
Partly Cloudy  
Partly Cloudy  
   Wind: SSE 9.3 km/h
Wind: SSE 9.3 km/h
Temperature: 15°C
Dew Point: 15°C
Humidity: 100%
Barometer: 1019 hPa
Clouds: Partly Cloudy
Visibility: More than 10 km
Cloud details: Few Clouds 2500 ft,
Partly Cloudy 8000 ft
LGBL 192050Z 15005KT 9999 FEW025 SCT080 15/15 Q1019

Script developed by  Saratoga-weather.org Adapted for the template by  Weerstation Leuven

You find our weather info also at:

European Weather Network

Weather Underground

AWEKAS

Citizen Weather Observer Program (CWOP)

HAMweather, WeatherForYou, PWS Weather

UK Metoffice

Equipment we use:

Weather-station
Davis Wireless Vantage Pro2

Davis Wireless Vantage Pro2